Airport ID:KO69
Update Time (UTC):23/09/2019 11:58
Wind Speed (Knots):1
Wind Direction (Magnetic):280
Temperature (°C):12
Dew Point (°C):12
Humidity (%):100
Altimeter (inHg):29.93
Density Altitude (Feet):
Visibility (Miles):5
Clouds (Hundreds of feet):CLR
Present Weather:BR
METAR:METAR KO69 231155Z AUTO 00000KT 6SM BR CLR 13/13 A2993 RMK A01

The data displayed is for advisory purposes only and is not to be used for flight planning or operations.

This page is not automatically refreshed. Reload the page to see current data.